Terminal Aerodrome Forecast
Issued by NWS

Home | Current Version | Previous Version | Text Only | Print | Product List | Glossary On
Versions: 1 2 3 4 5 6 7 8 9 10 11 12 13 14 15
000
FTUS43 KICT 140500
TAFSLN
TAF
KSLN 140522Z 1406/1506 35022G31KT P6SM SCT009 OVC018
      TEMPO 1407/1410 5SM -SN BR OVC012
     FM141000 35021G30KT P6SM SCT012 BKN035
     FM141600 35017G25KT P6SM SCT120=

USA.gov is the U.S. government's official web portal to all federal, state and local government web resources and services.